Time,TemperatureF,DewpointF,PressureIn,WindDirection,WindDirectionDegrees,WindSpeedMPH,WindSpeedGustMPH,Humidity,HourlyPrecipIn,Conditions,Clouds,dailyrainin,SoftwareType,DateUTC
2013-03-02 00:14:00,23.7,18.5,30.02,ENE,67,1.1,-999.0,80,-99.99,,,0.00,Acu-Link.com,2013-03-02 05:14:00,
2013-03-02 00:30:00,23.7,18.5,30.02,ENE,67,2.7,-999.0,80,-99.99,,,0.00,Acu-Link.com,2013-03-02 05:30:00,
2013-03-02 00:45:00,23.5,18.3,30.02,East,90,1.7,-999.0,80,-99.99,,,0.00,Acu-Link.com,2013-03-02 05:45:00,
2013-03-02 01:00:00,23.4,18.4,30.02,SE,135,0.0,-999.0,81,-99.99,,,0.00,Acu-Link.com,2013-03-02 06:00:00,
2013-03-02 01:15:00,23.4,18.7,30.02,East,90,1.1,-999.0,82,-99.99,,,0.00,Acu-Link.com,2013-03-02 06:15:00,
2013-03-02 01:30:00,23.2,18.8,30.02,NNE,22,2.2,-999.0,83,-99.99,,,0.00,Acu-Link.com,2013-03-02 06:30:00,
2013-03-02 01:45:00,23.2,18.8,30.02,NNE,22,2.7,-999.0,83,-99.99,,,0.00,Acu-Link.com,2013-03-02 06:45:00,
2013-03-02 02:00:00,23.2,19.1,30.02,ESE,112,3.2,-999.0,84,-99.99,,,0.00,Acu-Link.com,2013-03-02 07:00:00,
2013-03-02 02:15:00,23.2,19.1,30.02,ESE,112,3.7,-999.0,84,-99.99,,,0.00,Acu-Link.com,2013-03-02 07:15:00,
2013-03-02 02:30:00,23.4,19.3,30.01,ESE,112,1.1,-999.0,84,-99.99,,,0.00,Acu-Link.com,2013-03-02 07:30:00,
2013-03-02 02:46:00,23.4,19.3,30.00,NNE,22,2.2,-999.0,84,-99.99,,,0.00,Acu-Link.com,2013-03-02 07:46:00,
2013-03-02 03:01:00,23.4,19.3,30.00,NNE,22,1.7,-999.0,84,-99.99,,,0.00,Acu-Link.com,2013-03-02 08:01:00,
2013-03-02 03:16:00,23.2,19.1,30.00,NNE,22,3.2,-999.0,84,-99.99,,,0.00,Acu-Link.com,2013-03-02 08:16:00,
2013-03-02 03:31:00,23.2,19.1,30.00,ENE,67,2.7,-999.0,84,-99.99,,,0.00,Acu-Link.com,2013-03-02 08:31:00,
2013-03-02 03:46:00,23.0,18.9,30.00,ENE,67,1.7,-999.0,84,-99.99,,,0.00,Acu-Link.com,2013-03-02 08:46:00,
2013-03-02 04:01:00,22.8,18.7,30.00,SW,225,2.7,-999.0,84,-99.99,,,0.00,Acu-Link.com,2013-03-02 09:01:00,
2013-03-02 04:18:00,22.8,18.7,30.00,NNE,22,2.2,-999.0,84,-99.99,,,0.00,Acu-Link.com,2013-03-02 09:18:00,
2013-03-02 04:33:00,22.8,18.7,30.00,East,90,1.7,-999.0,84,-99.99,,,0.00,Acu-Link.com,2013-03-02 09:33:00,
2013-03-02 04:49:00,22.6,18.5,29.99,ESE,112,2.2,-999.0,84,-99.99,,,0.00,Acu-Link.com,2013-03-02 09:49:00,
2013-03-02 05:04:00,22.6,18.5,30.00,NW,315,2.2,-999.0,84,-99.99,,,0.00,Acu-Link.com,2013-03-02 10:04:00,
2013-03-02 05:19:00,22.6,18.8,30.00,North,0,2.2,-999.0,85,-99.99,,,0.00,Acu-Link.com,2013-03-02 10:19:00,
2013-03-02 05:34:00,22.6,18.8,30.00,SW,225,3.2,-999.0,85,-99.99,,,0.00,Acu-Link.com,2013-03-02 10:34:00,
2013-03-02 05:49:00,22.5,19.0,30.00,East,90,1.7,-999.0,86,-99.99,,,0.00,Acu-Link.com,2013-03-02 10:49:00,
2013-03-02 06:04:00,22.3,18.8,30.00,ESE,112,2.7,-999.0,86,-99.99,,,0.00,Acu-Link.com,2013-03-02 11:04:00,
2013-03-02 06:19:00,22.3,19.0,30.00,SSE,157,1.7,-999.0,87,-99.99,,,0.00,Acu-Link.com,2013-03-02 11:19:00,
2013-03-02 06:34:00,22.3,19.0,30.00,East,90,2.7,-999.0,87,-99.99,,,0.00,Acu-Link.com,2013-03-02 11:34:00,
2013-03-02 06:49:00,22.3,19.0,30.00,NNE,22,2.2,-999.0,87,-99.99,,,0.00,Acu-Link.com,2013-03-02 11:49:00,
2013-03-02 07:05:00,22.1,19.1,30.00,SE,135,1.7,-999.0,88,-99.99,,,0.00,Acu-Link.com,2013-03-02 12:05:00,
2013-03-02 07:20:00,22.1,19.4,30.00,WSW,247,1.7,-999.0,89,-99.99,,,0.00,Acu-Link.com,2013-03-02 12:20:00,
2013-03-02 07:35:00,22.1,19.4,30.01,East,90,2.2,-999.0,89,-99.99,,,0.00,Acu-Link.com,2013-03-02 12:35:00,
2013-03-02 07:50:00,22.1,19.4,30.02,SW,225,1.7,-999.0,89,-99.99,,,0.00,Acu-Link.com,2013-03-02 12:50:00,
2013-03-02 08:05:00,22.1,19.4,30.02,West,270,2.7,-999.0,89,-99.99,,,0.00,Acu-Link.com,2013-03-02 13:05:00,
2013-03-02 08:20:00,22.3,19.8,30.01,WNW,292,1.7,-999.0,90,-99.99,,,0.00,Acu-Link.com,2013-03-02 13:20:00,
2013-03-02 08:36:00,22.5,20.0,30.01,East,90,2.7,-999.0,90,-99.99,,,0.00,Acu-Link.com,2013-03-02 13:36:00,
2013-03-02 08:51:00,22.5,20.0,30.01,West,270,2.2,-999.0,90,-99.99,,,0.00,Acu-Link.com,2013-03-02 13:51:00,
2013-03-02 09:06:00,22.6,19.9,30.01,ESE,112,2.2,-999.0,89,-99.99,,,0.00,Acu-Link.com,2013-03-02 14:06:00,
2013-03-02 09:21:00,22.6,19.9,30.01,East,90,1.7,-999.0,89,-99.99,,,0.00,Acu-Link.com,2013-03-02 14:21:00,
2013-03-02 09:36:00,23.2,20.4,30.01,ENE,67,2.7,-999.0,89,-99.99,,,0.00,Acu-Link.com,2013-03-02 14:36:00,
2013-03-02 09:51:00,23.5,20.2,30.01,NW,315,2.2,-999.0,87,-99.99,,,0.00,Acu-Link.com,2013-03-02 14:51:00,
2013-03-02 10:06:00,24.1,20.5,30.01,NNW,337,4.7,-999.0,86,-99.99,,,0.00,Acu-Link.com,2013-03-02 15:06:00,
2013-03-02 10:21:00,24.3,20.2,30.02,ESE,112,3.2,-999.0,84,-99.99,,,0.00,Acu-Link.com,2013-03-02 15:21:00,
2013-03-02 10:37:00,25.0,20.6,30.01,NNE,22,3.7,-999.0,83,-99.99,,,0.00,Acu-Link.com,2013-03-02 15:37:00,
2013-03-02 10:52:00,25.0,20.6,30.01,ENE,67,3.7,-999.0,83,-99.99,,,0.00,Acu-Link.com,2013-03-02 15:52:00,
2013-03-02 11:07:00,25.3,20.6,30.02,SSE,157,2.7,-999.0,82,-99.99,,,0.00,Acu-Link.com,2013-03-02 16:07:00,
2013-03-02 11:22:00,25.3,20.3,30.01,NE,45,3.2,-999.0,81,-99.99,,,0.00,Acu-Link.com,2013-03-02 16:22:00,
2013-03-02 11:37:00,25.5,20.2,30.01,West,270,3.7,-999.0,80,-99.99,,,0.00,Acu-Link.com,2013-03-02 16:37:00,
2013-03-02 11:52:00,26.1,20.5,30.02,ESE,112,8.3,-999.0,79,-99.99,,,0.00,Acu-Link.com,2013-03-02 16:52:00,
2013-03-02 12:07:00,25.2,19.9,30.02,West,270,2.7,-999.0,80,-99.99,,,0.00,Acu-Link.com,2013-03-02 17:07:00,
2013-03-02 12:22:00,25.3,19.7,30.02,NW,315,3.7,-999.0,79,-99.99,,,0.00,Acu-Link.com,2013-03-02 17:22:00,
2013-03-02 12:38:00,26.4,20.2,30.01,East,90,2.7,-999.0,77,-99.99,,,0.00,Acu-Link.com,2013-03-02 17:38:00,
2013-03-02 12:53:00,26.1,19.6,30.01,NE,45,2.7,-999.0,76,-99.99,,,0.00,Acu-Link.com,2013-03-02 17:53:00,
2013-03-02 13:08:00,26.2,19.7,30.01,ESE,112,4.7,-999.0,76,-99.99,,,0.00,Acu-Link.com,2013-03-02 18:08:00,
2013-03-02 13:23:00,26.8,20.0,29.99,SE,135,2.7,-999.0,75,-99.99,,,0.00,Acu-Link.com,2013-03-02 18:23:00,
2013-03-02 13:38:00,25.9,19.1,29.99,East,90,2.7,-999.0,75,-99.99,,,0.00,Acu-Link.com,2013-03-02 18:38:00,
2013-03-02 13:53:00,26.4,19.6,29.99,East,90,3.7,-999.0,75,-99.99,,,0.00,Acu-Link.com,2013-03-02 18:53:00,
2013-03-02 14:08:00,26.8,19.6,29.99,NE,45,2.2,-999.0,74,-99.99,,,0.00,Acu-Link.com,2013-03-02 19:08:00,
2013-03-02 14:23:00,26.8,20.0,29.99,South,180,2.7,-999.0,75,-99.99,,,0.00,Acu-Link.com,2013-03-02 19:23:00,
2013-03-02 14:38:00,25.9,20.0,29.99,NNE,22,2.7,-999.0,78,-99.99,,,0.00,Acu-Link.com,2013-03-02 19:38:00,
2013-03-02 14:54:00,26.1,19.6,29.99,ESE,112,3.2,-999.0,76,-99.99,,,0.00,Acu-Link.com,2013-03-02 19:54:00,
2013-03-02 15:09:00,25.7,19.5,29.99,ENE,67,4.7,-999.0,77,-99.99,,,0.00,Acu-Link.com,2013-03-02 20:09:00,
2013-03-02 15:24:00,26.4,19.9,29.99,West,270,2.7,-999.0,76,-99.99,,,0.00,Acu-Link.com,2013-03-02 20:24:00,
2013-03-02 15:39:00,26.6,20.1,29.98,North,0,2.2,-999.0,76,-99.99,,,0.00,Acu-Link.com,2013-03-02 20:39:00,
2013-03-02 15:54:00,27.0,20.5,29.99,ENE,67,1.7,-999.0,76,-99.99,,,0.00,Acu-Link.com,2013-03-02 20:54:00,
2013-03-02 16:09:00,26.1,19.6,29.98,ESE,112,2.2,-999.0,76,-99.99,,,0.00,Acu-Link.com,2013-03-02 21:09:00,
2013-03-02 16:24:00,26.2,19.7,29.98,ESE,112,2.2,-999.0,76,-99.99,,,0.00,Acu-Link.com,2013-03-02 21:24:00,
2013-03-02 16:39:00,26.4,19.9,29.98,SE,135,3.7,-999.0,76,-99.99,,,0.00,Acu-Link.com,2013-03-02 21:39:00,
2013-03-02 16:54:00,26.2,20.0,29.99,West,270,2.7,-999.0,77,-99.99,,,0.00,Acu-Link.com,2013-03-02 21:54:00,
2013-03-02 17:10:00,25.7,18.9,29.99,SW,225,1.7,-999.0,75,-99.99,,,0.00,Acu-Link.com,2013-03-02 22:10:00,
2013-03-02 17:25:00,25.3,18.5,29.98,ESE,112,2.2,-999.0,75,-99.99,,,0.00,Acu-Link.com,2013-03-02 22:25:00,
2013-03-02 17:40:00,25.2,18.7,29.99,West,270,1.1,-999.0,76,-99.99,,,0.00,Acu-Link.com,2013-03-02 22:40:00,
2013-03-02 17:55:00,24.8,18.9,29.99,ESE,112,3.2,-999.0,78,-99.99,,,0.00,Acu-Link.com,2013-03-02 22:55:00,
2013-03-02 18:10:00,24.1,19.4,30.00,NNE,22,3.2,-999.0,82,-99.99,,,0.00,Acu-Link.com,2013-03-02 23:10:00,
2013-03-02 18:25:00,23.7,19.0,29.99,NW,315,3.7,-999.0,82,-99.99,,,0.00,Acu-Link.com,2013-03-02 23:25:00,
2013-03-02 18:40:00,23.5,18.8,29.99,WSW,247,1.7,-999.0,82,-99.99,,,0.00,Acu-Link.com,2013-03-02 23:40:00,
2013-03-02 18:55:00,23.4,19.0,30.00,NW,315,2.2,-999.0,83,-99.99,,,0.00,Acu-Link.com,2013-03-02 23:55:00,
2013-03-02 19:10:00,23.2,19.1,30.00,South,180,0.0,-999.0,84,-99.99,,,0.00,Acu-Link.com,2013-03-03 00:10:00,
2013-03-02 19:26:00,23.2,18.8,30.00,East,90,1.1,-999.0,83,-99.99,,,0.00,Acu-Link.com,2013-03-03 00:26:00,
2013-03-02 19:41:00,23.2,18.5,29.99,NE,45,1.1,-999.0,82,-99.99,,,0.00,Acu-Link.com,2013-03-03 00:41:00,
2013-03-02 19:56:00,23.2,18.5,29.99,NW,315,1.7,-999.0,82,-99.99,,,0.00,Acu-Link.com,2013-03-03 00:56:00,
2013-03-02 20:11:00,23.2,18.5,29.98,SSE,157,0.0,-999.0,82,-99.99,,,0.00,Acu-Link.com,2013-03-03 01:11:00,
2013-03-02 20:26:00,22.5,17.9,29.99,WNW,292,0.0,-999.0,82,-99.99,,,0.00,Acu-Link.com,2013-03-03 01:26:00,
2013-03-02 20:41:00,21.6,17.5,29.98,WNW,292,0.0,-999.0,84,-99.99,,,0.00,Acu-Link.com,2013-03-03 01:41:00,
2013-03-02 20:56:00,20.7,16.9,29.98,WNW,292,0.0,-999.0,85,-99.99,,,0.00,Acu-Link.com,2013-03-03 01:56:00,
2013-03-02 21:11:00,19.9,16.7,29.98,WNW,292,0.0,-999.0,87,-99.99,,,0.00,Acu-Link.com,2013-03-03 02:11:00,
2013-03-02 21:26:00,19.2,16.2,29.99,WNW,292,0.0,-999.0,88,-99.99,,,0.00,Acu-Link.com,2013-03-03 02:26:00,
2013-03-02 21:42:00,18.9,16.2,29.99,WNW,292,0.0,-999.0,89,-99.99,,,0.00,Acu-Link.com,2013-03-03 02:42:00,
2013-03-02 21:57:00,18.7,16.3,30.00,WNW,292,0.0,-999.0,90,-99.99,,,0.00,Acu-Link.com,2013-03-03 02:57:00,
2013-03-02 22:12:00,19.0,16.8,29.99,West,270,0.0,-999.0,91,-99.99,,,0.00,Acu-Link.com,2013-03-03 03:12:00,
2013-03-02 22:27:00,19.6,17.4,29.99,East,90,0.0,-999.0,91,-99.99,,,0.00,Acu-Link.com,2013-03-03 03:27:00,
2013-03-02 22:42:00,19.9,17.7,30.00,West,270,0.0,-999.0,91,-99.99,,,0.00,Acu-Link.com,2013-03-03 03:42:00,
2013-03-02 22:57:00,20.3,18.1,29.99,SW,225,0.0,-999.0,91,-99.99,,,0.00,Acu-Link.com,2013-03-03 03:57:00,
2013-03-02 23:12:00,20.8,17.8,29.98,ESE,112,0.0,-999.0,88,-99.99,,,0.00,Acu-Link.com,2013-03-03 04:12:00,
2013-03-02 23:27:00,21.0,17.8,29.99,East,90,0.0,-999.0,87,-99.99,,,0.00,Acu-Link.com,2013-03-03 04:27:00,
2013-03-02 23:42:00,21.2,17.9,29.99,East,90,1.1,-999.0,87,-99.99,,,0.00,Acu-Link.com,2013-03-03 04:42:00,
2013-03-02 23:58:00,21.2,17.9,29.98,WSW,247,0.0,-999.0,87,-99.99,,,0.00,Acu-Link.com,2013-03-03 04:58:00,